
258 participants • 136 Femmes • 122 Hommes
29 licenciés (11%) • 229 non-licenciés (89%)
Temps moyen : 00:28:48
| Position | Nom/Prénom | Tps officiel | Club | Dossard | Catégorie | Km/h | Actions |
|---|---|---|---|---|---|---|---|
| 101 | SANCHEZ LAURE | 00:27:20 | — | 5225 | SEF (11 / 42) | 10.9 | |
| 102 | KREDER HANAE | 00:27:29 | — | 5074 | SEF (12 / 42) | 10.9 | |
| 103 | GORIN JULIEN | 00:27:29 | — | 5170 | M1M (10 / 10) | 10.9 | |
| 104 | GEORGE CHRISTOPHE | 00:27:33 | — | 5010 | M4M (5 / 9) | 10.8 | |
| 105 | ORGEAS STEVE | 00:27:35 | — | 5174 | M2M (11 / 17) | 10.8 | |
| 106 | ORGEAS AVA | 00:27:36 | SCM CHATILLON-SOUS-BAGNEUX | 5175 | MIF (1 / 6) | 10.8 | |
| 107 | GUERIN DAPHNE | 00:27:45 | — | 5125 | MIF (2 / 6) | 10.8 | |
| 108 | ROSA DENIS | 00:27:46 | — | 5124 | M3M (7 / 12) | 10.8 | |
| 109 | MANTAFOUNIS CHRYSOVALANTIS | 00:27:56 | — | 5022 | M0M (6 / 10) | 10.7 | |
| 110 | URIBE GUIZA JORGE | 00:28:01 | — | 5222 | M0M (7 / 10) | 10.7 | |
| 111 | MORLIERE MAXIME | 00:28:02 | — | 5221 | M0M (8 / 10) | 10.7 | |
| 112 | LEMAIRE AURELIE | 00:28:06 | — | 5056 | M1F (2 / 14) | 10.6 | |
| 113 | MONMARCHE-FONTAINE ROXANE | 00:28:09 | — | 5227 | ESF (1 / 15) | 10.6 | |
| 114 | LECLERE CHRISTOPHE | 00:28:12 | — | 5063 | M2M (12 / 17) | 10.6 | |
| 115 | SAHIN GORKEM | 00:28:25 | EQUIPE SCIENCES PO PARIS | 5209 | SEM (19 / 28) | 10.5 | |
| 116 | PREVELATO CAMILIA | 00:28:26 | EQUIPE SCIENCES PO PARIS | 5126 | ESF (2 / 15) | 10.5 | |
| 117 | AIZOUKY MYRIAM | 00:28:27 | — | 543 | MIF (3 / 6) | 10.5 | |
| 118 | ROUHAULT ALICE | 00:28:29 | — | 5132 | CAF (3 / 9) | 10.5 | |
| 119 | RIEG CHRISTELLE | 00:28:31 | — | 5033 | M3F (1 / 10) | 10.5 | |
| 120 | ROSSO JULIETTE | 00:28:32 | PUC | 5156 | SEF (13 / 42) | 10.5 | |
| 121 | ROUHAULT LAURENCE | 00:28:33 | — | 5133 | M2F (1 / 13) | 10.5 | |
| 122 | LABARTHE-PIOL CELESTE | 00:28:35 | — | 173 | CAF (4 / 9) | 10.4 | |
| 123 | MARTEVILLE HENRI | 00:28:37 | — | 5220 | SEM (20 / 28) | 10.4 | |
| 124 | PAULO JEAN PAUL | 00:28:37 | — | 5198 | M4M (6 / 9) | 10.4 | |
| 125 | GUY OCEANNE | 00:28:39 | EQUIPE SCIENCES PO PARIS | 5226 | SEF (14 / 42) | 10.4 | |
| 126 | STOUFF CHARLOTTE | 00:28:47 | — | 5083 | CAF (5 / 9) | 10.4 | |
| 127 | FLORY PIERRE-ELISEE | 00:28:52 | SOCIETE ORANO | 5093 | SEM (21 / 28) | 10.3 | |
| 128 | DUTREUILH MATHILDE | 00:28:52 | SOCIETE ORANO | 5092 | SEF (15 / 42) | 10.3 | |
| 129 | GEORGE ZOE | 00:29:02 | — | 5011 | SEF (16 / 42) | 10.3 | |
| 130 | PHUNG PASCAL | 00:29:03 | — | 5005 | M2M (13 / 17) | 10.3 | |
| 131 | MALLET JOSEPHINE | 00:29:05 | — | 5158 | ESF (3 / 15) | 10.3 | |
| 132 | GRAIGNIC MORGANE | 00:29:09 | — | 5195 | M3F (2 / 10) | 10.2 | |
| 133 | ROSSO FLORENCE | 00:29:10 | — | 5155 | M4F (3 / 9) | 10.2 | |
| 134 | DAHNOUN FARIDA | 00:29:18 | — | 5163 | M5F (1 / 6) | 10.2 | |
| 135 | REBAHI PHILIPPE | 00:29:19 | CA MONTREUIL | 5164 | M5F (2 / 6) | 10.2 | |
| 136 | DEVER AMELIE | 00:29:38 | — | 5045 | M1F (3 / 14) | 10.1 | |
| 137 | DARANI LENA | 00:29:43 | — | 5081 | MIF (4 / 6) | 10.0 | |
| 138 | DA ISABEL NOELLE | 00:29:44 | — | 299 | M4F (4 / 9) | 10.0 | |
| 139 | POLINI ISABELLE | 00:29:44 | — | 5246 | M5F (3 / 6) | 10.0 | |
| 140 | DARANI MARIELLE | 00:29:45 | — | 5082 | M2F (2 / 13) | 10.0 | |
| 141 | QUERE LEA-CHRISTINE | 00:29:45 | EQUIPE SCIENCES PO PARIS | 5172 | JUF (1 / 2) | 10.0 | |
| 142 | HENNON DOMITILLE | 00:29:47 | — | 5009 | SEF (17 / 42) | 10.0 | |
| 143 | FELLER ISALINE | 00:29:57 | EQUIPE SCIENCES PO PARIS | 5219 | ESF (4 / 15) | 10.0 | |
| 144 | GIROUX MELINE | 00:30:11 | — | 5089 | CAF (6 / 9) | 9.9 | |
| 145 | DE MONTALEMBERT YSE | 00:30:22 | EQUIPE SCIENCES PO PARIS | 5169 | ESF (5 / 15) | 9.8 | |
| 146 | BELIN JULIE | 00:30:23 | — | 5214 | M0F (5 / 10) | 9.8 | |
| 147 | ALBERT SEGOLENE | 00:30:25 | — | 5040 | SEF (18 / 42) | 9.8 | |
| 148 | LAUDET VIRGINIE | 00:30:36 | — | 5215 | M1F (4 / 14) | 9.8 | |
| 149 | DANIEL LAURA | 00:30:46 | — | 5071 | M0F (6 / 10) | 9.7 | |
| 150 | LELIEVRE ARNAUD | 00:30:47 | — | 5072 | M0M (9 / 10) | 9.7 |